Time;durP1;ratioP1;P1;durP2;ratioP2;P2;SDS_P1;SDS_P2;PMS_P1;PMS_P2;Temp;Humidity;BMP_temperature;BMP_pressure;BME280_temperature;BME280_humidity;BME280_pressure;Samples;Min_cycle;Max_cycle;Signal;HPM_P1;HPM_P2
2022/01/10 00:00:32;;;;;;;18.40;10.28;;;;;;;2.61;79.10;100494.78;1756134;80;34382;-64
2022/01/10 00:03:05;;;;;;;16.07;10.38;;;;;;;2.59;79.06;100500.68;1755975;81;25750;-63
2022/01/10 00:05:34;;;;;;;16.40;10.30;;;;;;;2.56;79.12;100509.28;1755273;81;26377;-63
2022/01/10 00:08:04;;;;;;;14.85;9.88;;;;;;;2.60;79.68;100504.17;1782164;80;27077;-63
2022/01/10 00:10:33;;;;;;;13.13;8.25;;;;;;;2.68;79.92;100509.88;1782349;79;25677;-63
2022/01/10 00:13:06;;;;;;;13.25;8.55;;;;;;;2.76;80.20;100508.95;1782609;80;25750;-63
2022/01/10 00:15:34;;;;;;;13.45;9.18;;;;;;;2.82;79.96;100503.74;1782465;80;26458;-62
2022/01/10 00:18:01;;;;;;;14.58;9.75;;;;;;;2.85;79.76;100504.89;1782021;79;25758;-64
2022/01/10 00:20:28;;;;;;;12.98;8.75;;;;;;;2.88;79.81;100504.69;1782780;80;27449;-63
2022/01/10 00:22:56;;;;;;;12.55;8.45;;;;;;;2.89;79.52;100504.23;1782648;80;25860;-63
2022/01/10 00:25:24;;;;;;;12.78;9.10;;;;;;;2.90;79.61;100501.47;1782166;80;25660;-63
2022/01/10 00:27:53;;;;;;;14.20;9.03;;;;;;;2.88;79.08;100502.52;1782486;80;25743;-63
2022/01/10 00:30:23;;;;;;;13.65;8.60;;;;;;;2.87;79.24;100500.80;1782424;80;25831;-64
2022/01/10 00:32:53;;;;;;;17.23;9.63;;;;;;;2.86;79.02;100497.77;1782733;80;27421;-64
2022/01/10 00:35:21;;;;;;;14.15;8.80;;;;;;;2.87;79.23;100497.66;1782315;80;25853;-64
2022/01/10 00:37:49;;;;;;;12.13;8.65;;;;;;;2.88;78.96;100498.05;1782691;80;25496;-63
2022/01/10 00:40:18;;;;;;;12.47;8.55;;;;;;;2.80;78.93;100505.63;1782411;80;25782;-64
2022/01/10 00:42:53;;;;;;;16.02;9.45;;;;;;;2.78;79.17;100515.03;1781697;80;25810;-63
2022/01/10 00:45:23;;;;;;;10.90;8.18;;;;;;;2.82;79.46;100509.05;1751668;81;27486;-63
2022/01/10 00:47:48;;;;;;;14.80;9.13;;;;;;;2.83;78.88;100501.47;1750006;82;25916;-63
2022/01/10 00:50:17;;;;;;;15.83;9.58;;;;;;;2.74;78.92;100501.53;1753206;80;25484;-64
2022/01/10 00:52:51;;;;;;;11.48;8.38;;;;;;;2.75;79.21;100503.25;1750643;81;25745;-63
2022/01/10 00:55:22;;;;;;;13.88;9.00;;;;;;;2.77;79.11;100505.34;1753049;81;25682;-64
2022/01/10 00:57:49;;;;;;;12.88;8.80;;;;;;;2.76;78.90;100508.95;1750416;82;28157;-63
2022/01/10 01:00:17;;;;;;;11.78;8.60;;;;;;;2.74;79.11;100507.34;1764711;81;25685;-63
2022/01/10 01:02:44;;;;;;;13.45;8.75;;;;;;;2.77;79.15;100505.84;1775915;80;25828;-64
2022/01/10 01:05:15;;;;;;;13.60;8.48;;;;;;;2.74;78.48;100504.68;1776082;80;26430;-63
2022/01/10 01:07:42;;;;;;;15.68;9.83;;;;;;;2.69;78.58;100510.75;1777648;80;25917;-63
2022/01/10 01:10:48;;;;;;;15.70;9.78;;;;;;;2.65;78.39;100510.93;1778806;80;27528;-62
2022/01/10 01:15:31;;;;;;;15.23;9.20;;;;;;;2.56;78.46;100515.91;1778739;80;25831;-63
2022/01/10 01:18:00;;;;;;;12.03;8.08;;;;;;;2.51;78.31;100521.50;1778644;80;25790;-64
2022/01/10 01:20:31;;;;;;;15.95;9.23;;;;;;;2.48;78.30;100525.68;1778705;80;26598;-63
2022/01/10 01:25:43;;;;;;;13.95;9.13;;;;;;;2.44;78.48;100530.32;1698116;84;25831;-64
2022/01/10 01:28:10;;;;;;;15.83;8.88;;;;;;;2.40;78.41;100531.91;1698237;84;25871;-62
2022/01/10 01:30:37;;;;;;;14.85;8.25;;;;;;;2.38;78.67;100532.47;1726090;80;26447;-63
2022/01/10 01:33:04;;;;;;;13.80;8.73;;;;;;;2.37;78.77;100532.95;1778941;80;25709;-63
2022/01/10 01:35:34;;;;;;;13.45;8.70;;;;;;;2.37;79.02;100529.42;1778901;80;27468;-63
2022/01/10 01:38:01;;;;;;;14.07;8.88;;;;;;;2.39;79.08;100535.51;1779214;80;25845;-64
2022/01/10 01:40:30;;;;;;;14.25;8.35;;;;;;;2.43;79.25;100537.02;1778978;80;25801;-62
2022/01/10 01:42:57;;;;;;;13.43;8.53;;;;;;;2.43;79.21;100532.59;1779404;79;26576;-63
2022/01/10 01:45:41;;;;;;;15.20;9.15;;;;;;;2.44;79.18;100534.30;1779035;80;25761;-64
2022/01/10 01:48:09;;;;;;;13.85;8.68;;;;;;;2.48;79.32;100535.81;1738802;80;27537;-63
2022/01/10 01:50:37;;;;;;;13.22;8.20;;;;;;;2.55;79.42;100531.49;1752388;79;25723;-63
2022/01/10 01:53:06;;;;;;;13.68;8.38;;;;;;;2.60;79.48;100541.36;1779223;80;25721;-63
2022/01/10 01:55:36;;;;;;;13.45;8.10;;;;;;;2.64;79.11;100544.23;1778826;80;26617;-63
2022/01/10 01:58:03;;;;;;;15.45;9.25;;;;;;;2.60;78.89;100546.19;1752813;80;25772;-63
2022/01/10 02:00:33;;;;;;;16.73;8.65;;;;;;;2.62;79.10;100550.94;1756066;79;27474;-64
2022/01/10 02:03:00;;;;;;;12.90;8.35;;;;;;;2.61;78.77;100549.71;1746726;82;25756;-63
2022/01/10 02:05:28;;;;;;;12.25;8.43;;;;;;;2.64;78.89;100553.53;1746627;82;25733;-63
2022/01/10 02:07:55;;;;;;;11.65;8.25;;;;;;;2.63;78.77;100545.17;1746502;82;25690;-64
2022/01/10 02:10:23;;;;;;;13.80;8.43;;;;;;;2.63;78.45;100543.36;1746464;82;25510;-64
2022/01/10 02:12:50;;;;;;;15.23;9.30;;;;;;;2.58;78.22;100541.91;1746624;82;28330;-63
2022/01/10 02:15:46;;;;;;;13.22;8.93;;;;;;;2.55;78.29;100545.61;1746340;82;25831;-64
2022/01/10 02:18:06;;;;;;;13.53;8.80;;;;;;;2.50;78.05;100539.73;1744632;82;25820;-63
2022/01/10 02:20:34;;;;;;;17.45;9.40;;;;;;;2.45;78.08;100540.45;1746622;82;25795;-64
2022/01/10 02:23:02;;;;;;;15.83;9.05;;;;;;;2.40;78.17;100548.69;1760763;80;25790;-63
2022/01/10 02:25:37;;;;;;;15.53;9.43;;;;;;;2.37;78.00;100547.55;1776459;80;27599;-63
2022/01/10 02:28:05;;;;;;;17.60;9.68;;;;;;;2.31;78.08;100550.09;1779452;80;25931;-63
2022/01/10 02:30:32;;;;;;;15.58;9.45;;;;;;;2.30;78.16;100550.16;1788231;80;25727;-63
2022/01/10 02:33:01;;;;;;;14.30;9.05;;;;;;;2.28;78.29;100548.09;1783184;80;25790;-64
2022/01/10 02:35:43;;;;;;;15.95;10.08;;;;;;;2.24;78.66;100550.52;1788198;80;25845;-63
2022/01/10 02:38:10;;;;;;;14.55;9.35;;;;;;;2.18;78.96;100551.72;1788377;80;27498;-64
2022/01/10 02:40:37;;;;;;;16.25;9.85;;;;;;;2.10;79.12;100549.52;1784336;80;25645;-63
2022/01/10 02:43:08;;;;;;;17.17;10.80;;;;;;;2.07;79.41;100545.70;1764429;80;25792;-63
2022/01/10 02:45:35;;;;;;;16.42;9.83;;;;;;;2.03;79.37;100546.36;1753894;81;25801;-63
2022/01/10 02:48:03;;;;;;;16.15;9.83;;;;;;;2.06;79.72;100547.13;1763181;81;25505;-64
2022/01/10 02:50:33;;;;;;;13.62;9.30;;;;;;;2.02;79.60;100555.70;1763293;81;28134;-63
2022/01/10 02:53:00;;;;;;;15.35;10.03;;;;;;;2.06;79.75;100557.75;1762828;81;25879;-64
2022/01/10 02:55:27;;;;;;;17.17;9.63;;;;;;;2.08;79.74;100559.81;1762983;81;25668;-63
2022/01/10 02:57:55;;;;;;;16.55;9.63;;;;;;;2.14;80.06;100557.68;1763080;81;25800;-64
2022/01/10 03:00:25;;;;;;;18.82;10.55;;;;;;;2.16;79.86;100564.22;1772726;80;26213;-64
2022/01/10 03:02:54;;;;;;;18.00;9.83;;;;;;;2.19;79.74;100562.73;1778972;80;28308;-63
2022/01/10 03:05:24;;;;;;;18.70;11.60;;;;;;;2.22;79.75;100567.00;1778750;80;25729;-64
2022/01/10 03:07:55;;;;;;;17.05;10.80;;;;;;;2.25;79.82;100567.67;1776809;80;25747;-64
2022/01/10 03:10:23;;;;;;;15.30;10.20;;;;;;;2.29;79.79;100563.91;1775986;80;25761;-63
2022/01/10 03:12:50;;;;;;;17.77;11.03;;;;;;;2.30;79.39;100576.70;1776219;80;25715;-63
2022/01/10 03:15:18;;;;;;;16.45;10.75;;;;;;;2.26;79.28;100573.86;1776007;80;28301;-64
2022/01/10 03:17:45;;;;;;;16.37;11.00;;;;;;;2.26;79.66;100570.72;1776032;80;25736;-63
2022/01/10 03:20:13;;;;;;;18.30;10.75;;;;;;;2.30;79.69;100572.72;1775923;80;25676;-63
2022/01/10 03:22:42;;;;;;;18.45;11.50;;;;;;;2.34;79.67;100575.59;1776182;80;25760;-63
2022/01/10 03:25:10;;;;;;;17.40;11.03;;;;;;;2.39;79.92;100586.80;1775895;80;25783;-63
2022/01/10 03:27:41;;;;;;;14.98;10.40;;;;;;;2.40;79.62;100584.53;1775757;80;27311;-64
2022/01/10 03:30:10;;;;;;;16.45;10.45;;;;;;;2.44;79.82;100587.86;1775780;80;25792;-63
2022/01/10 03:32:38;;;;;;;23.38;11.57;;;;;;;2.48;79.67;100591.58;1775890;80;25767;-64
2022/01/10 03:35:10;;;;;;;18.48;10.80;;;;;;;2.53;79.80;100594.45;1774475;80;25784;-64
2022/01/10 03:37:38;;;;;;;15.18;10.72;;;;;;;2.53;79.24;100598.44;1775839;80;25715;-63
2022/01/10 03:40:07;;;;;;;16.67;11.48;;;;;;;2.49;78.90;100590.64;1775796;80;27471;-64
2022/01/10 03:42:36;;;;;;;16.50;11.10;;;;;;;2.42;78.79;100595.92;1775738;80;25786;-64
2022/01/10 03:45:07;;;;;;;17.50;11.33;;;;;;;2.39;78.66;100609.36;1775885;79;25710;-63
2022/01/10 03:47:35;;;;;;;15.83;10.28;;;;;;;2.37;78.74;100607.29;1775840;79;26012;-64
2022/01/10 03:50:02;;;;;;;20.70;11.53;;;;;;;2.33;78.55;100614.55;1775766;80;26582;-64
2022/01/10 03:52:31;;;;;;;15.90;10.43;;;;;;;2.33;78.58;100620.34;1775958;80;27461;-64
2022/01/10 03:54:58;;;;;;;16.52;10.58;;;;;;;2.30;78.53;100629.80;1775740;80;25487;-63
2022/01/10 03:57:25;;;;;;;15.32;9.88;;;;;;;2.28;78.25;100627.72;1775723;80;25732;-64
2022/01/10 03:59:54;;;;;;;15.40;10.15;;;;;;;2.28;78.45;100635.69;1761921;80;26421;-63
2022/01/10 04:02:25;;;;;;;14.50;10.18;;;;;;;2.29;78.54;100633.39;1743453;82;25824;-64
2022/01/10 04:04:52;;;;;;;15.53;10.03;;;;;;;2.30;78.51;100638.63;1743502;82;27500;-64
2022/01/10 04:07:23;;;;;;;16.97;9.43;;;;;;;2.30;78.63;100650.58;1744089;81;25684;-64
2022/01/10 04:09:53;;;;;;;18.15;10.68;;;;;;;2.33;78.66;100658.83;1746325;82;25524;-63
2022/01/10 04:12:21;;;;;;;16.23;10.38;;;;;;;2.33;78.65;100666.31;1746528;82;25816;-64
2022/01/10 04:14:48;;;;;;;13.85;9.43;;;;;;;2.34;78.82;100670.69;1746645;82;25738;-63
2022/01/10 04:17:15;;;;;;;14.38;8.88;;;;;;;2.39;78.95;100674.41;1756170;80;27481;-64
2022/01/10 04:19:42;;;;;;;16.00;9.50;;;;;;;2.41;78.75;100681.83;1788255;80;25902;-64
2022/01/10 04:22:11;;;;;;;13.15;9.20;;;;;;;2.47;78.98;100674.83;1816791;78;25766;-64
2022/01/10 04:24:38;;;;;;;12.63;8.83;;;;;;;2.52;78.96;100681.70;1817035;78;25767;-64
2022/01/10 04:27:08;;;;;;;12.50;9.03;;;;;;;2.55;78.67;100684.19;1817013;79;25512;-63
2022/01/10 04:29:40;;;;;;;12.50;8.60;;;;;;;2.53;78.19;100682.09;1817118;78;27425;-64
2022/01/10 04:32:10;;;;;;;12.47;8.45;;;;;;;2.50;78.01;100685.30;1816918;78;26100;-64
2022/01/10 04:34:37;;;;;;;12.07;8.80;;;;;;;2.49;78.13;100688.89;1817255;79;25720;-64
2022/01/10 04:37:05;;;;;;;12.30;9.08;;;;;;;2.47;77.87;100699.22;1816916;79;25791;-64
2022/01/10 04:39:37;;;;;;;14.90;9.60;;;;;;;2.43;77.69;100701.19;1817044;79;25694;-64
2022/01/10 04:42:04;;;;;;;14.25;9.43;;;;;;;2.37;77.50;100709.50;1811650;78;27473;-64
2022/01/10 04:44:32;;;;;;;15.08;9.35;;;;;;;2.31;77.28;100706.71;1792277;80;25627;-64
2022/01/10 04:47:02;;;;;;;16.35;10.03;;;;;;;2.26;77.12;100710.56;1792509;80;25694;-64
2022/01/10 04:49:38;;;;;;;16.37;9.93;;;;;;;2.18;77.27;100713.17;1792808;78;26412;-63
2022/01/10 04:51:58;;;;;;;12.60;9.63;;;;;;;2.14;77.24;100713.42;1791134;78;25713;-63
2022/01/10 04:54:25;;;;;;;16.37;10.70;;;;;;;2.06;77.11;100714.30;1792539;78;27357;-63
2022/01/10 04:56:52;;;;;;;16.07;10.18;;;;;;;2.00;77.12;100715.00;1792381;80;25699;-65
2022/01/10 04:59:23;;;;;;;15.88;10.53;;;;;;;1.96;77.17;100710.81;1791474;78;25754;-64
2022/01/10 05:01:50;;;;;;;13.80;9.40;;;;;;;1.91;77.16;100717.30;1788750;80;27006;-65
2022/01/10 05:04:17;;;;;;;12.93;8.83;;;;;;;1.86;77.50;100725.02;1788877;80;25852;-64
2022/01/10 05:06:47;;;;;;;14.95;9.35;;;;;;;1.86;77.36;100727.67;1788806;80;27489;-65
2022/01/10 05:09:14;;;;;;;13.53;9.03;;;;;;;1.84;77.62;100730.88;1783315;80;25782;-64
2022/01/10 05:11:49;;;;;;;16.35;9.73;;;;;;;1.83;77.38;100742.90;1780377;80;25819;-64
2022/01/10 05:14:17;;;;;;;15.20;10.05;;;;;;;1.82;77.61;100740.73;1783204;80;25943;-64
2022/01/10 05:16:45;;;;;;;16.77;10.60;;;;;;;1.84;77.75;100751.25;1787232;80;25849;-65
2022/01/10 05:19:12;;;;;;;16.80;10.13;;;;;;;1.83;77.96;100749.08;1788670;79;28300;-64
2022/01/10 05:21:40;;;;;;;15.53;10.32;;;;;;;1.87;78.00;100765.20;1787264;80;25735;-64
2022/01/10 05:24:08;;;;;;;16.40;10.18;;;;;;;1.81;77.41;100764.66;1792918;78;25788;-65
2022/01/10 05:26:35;;;;;;;13.90;9.38;;;;;;;1.83;77.50;100768.10;1786501;80;25839;-65
2022/01/10 05:29:03;;;;;;;15.85;9.63;;;;;;;1.80;77.56;100764.27;1786684;80;25721;-65
2022/01/10 05:31:34;;;;;;;16.32;9.15;;;;;;;1.81;77.48;100768.19;1756118;80;27455;-65
2022/01/10 05:34:12;;;;;;;15.43;9.85;;;;;;;1.83;77.42;100775.61;1785686;80;25916;-63
2022/01/10 05:36:39;;;;;;;15.00;9.00;;;;;;;1.81;77.48;100780.13;1786660;79;25669;-63
2022/01/10 05:39:08;;;;;;;12.63;9.53;;;;;;;1.82;77.67;100775.22;1787119;80;26496;-64
2022/01/10 05:41:36;;;;;;;15.65;9.45;;;;;;;1.80;77.49;100777.53;1786667;80;25736;-63
2022/01/10 05:44:05;;;;;;;17.35;10.13;;;;;;;1.83;77.60;100781.36;1785433;80;27430;-64
2022/01/10 05:46:36;;;;;;;12.88;8.83;;;;;;;1.82;77.28;100783.63;1784862;80;25837;-64
2022/01/10 05:49:07;;;;;;;13.28;8.95;;;;;;;1.78;77.00;100792.21;1784621;80;25803;-64
2022/01/10 05:51:36;;;;;;;18.42;11.00;;;;;;;1.78;77.07;100797.52;1789493;79;25787;-63
2022/01/10 05:54:07;;;;;;;13.70;9.60;;;;;;;1.78;76.75;100802.82;1783589;80;25722;-63
2022/01/10 05:56:37;;;;;;;17.32;10.25;;;;;;;1.75;76.62;100805.63;1789175;80;28110;-63
2022/01/10 05:59:04;;;;;;;15.30;9.95;;;;;;;1.70;76.36;100801.88;1788892;78;25910;-63
2022/01/10 06:01:31;;;;;;;21.68;11.38;;;;;;;1.65;76.35;100809.22;1782598;80;25755;-64
2022/01/10 06:04:00;;;;;;;16.12;10.20;;;;;;;1.64;76.53;100815.45;1782782;80;26446;-64
2022/01/10 06:06:29;;;;;;;15.95;10.70;;;;;;;1.66;76.75;100820.70;1780580;80;25510;-64
2022/01/10 06:08:56;;;;;;;21.80;11.08;;;;;;;1.69;76.59;100825.84;1782473;80;27513;-64
2022/01/10 06:11:23;;;;;;;17.45;10.23;;;;;;;1.70;76.75;100831.05;1782704;79;25991;-64
2022/01/10 06:13:52;;;;;;;19.95;12.05;;;;;;;1.72;76.79;100830.52;1782717;80;25737;-63
2022/01/10 06:16:19;;;;;;;14.40;9.50;;;;;;;1.70;75.62;100835.03;1782537;80;26458;-64
2022/01/10 06:18:49;;;;;;;15.65;10.43;;;;;;;1.65;75.86;100846.34;1809725;79;25738;-64
2022/01/10 06:21:18;;;;;;;17.42;10.70;;;;;;;1.60;76.08;100847.51;1813913;78;28136;-63
2022/01/10 06:23:45;;;;;;;14.03;9.38;;;;;;;1.61;75.49;100860.72;1813014;79;25781;-64
2022/01/10 06:26:14;;;;;;;16.67;10.15;;;;;;;1.55;75.93;100860.55;1813416;79;25689;-62
2022/01/10 06:28:40;;;;;;;17.67;10.13;;;;;;;1.53;75.82;100863.73;1813677;79;25769;-63
2022/01/10 06:31:09;;;;;;;16.82;10.20;;;;;;;1.56;75.98;100866.70;1813837;79;25810;-63
2022/01/10 06:33:37;;;;;;;19.17;11.75;;;;;;;1.58;75.87;100863.51;1812537;77;27464;-64
2022/01/10 06:36:08;;;;;;;18.27;10.82;;;;;;;1.59;76.09;100870.98;1813573;79;25770;-63
2022/01/10 06:38:33;;;;;;;20.90;11.55;;;;;;;1.61;75.87;100873.97;1809348;78;25751;-64
2022/01/10 06:41:01;;;;;;;17.02;10.93;;;;;;;1.60;74.90;100881.98;1787068;80;25784;-63
2022/01/10 06:43:28;;;;;;;18.95;11.00;;;;;;;1.56;75.33;100880.83;1789339;77;25699;-64
2022/01/10 06:45:56;;;;;;;21.55;11.88;;;;;;;1.54;74.73;100889.32;1787201;80;27531;-63
2022/01/10 06:48:23;;;;;;;19.27;12.53;;;;;;;1.46;75.06;100888.84;1786531;80;25752;-63
2022/01/10 06:50:50;;;;;;;21.15;13.35;;;;;;;1.43;75.16;100890.78;1786900;80;25642;-63
2022/01/10 06:53:19;;;;;;;20.37;12.90;;;;;;;1.39;74.88;100898.03;1786332;80;25814;-64
2022/01/10 06:55:48;;;;;;;19.27;12.33;;;;;;;1.32;75.02;100895.25;1786687;80;25938;-63
2022/01/10 06:58:15;;;;;;;19.80;12.53;;;;;;;1.28;75.46;100891.05;1787556;79;27454;-63
2022/01/10 07:00:45;;;;;;;20.75;12.82;;;;;;;1.29;75.21;100891.45;1786028;79;26039;-64
2022/01/10 07:03:12;;;;;;;21.23;12.53;;;;;;;1.27;75.25;100899.92;1789161;78;25822;-64
2022/01/10 07:05:41;;;;;;;19.95;12.37;;;;;;;1.27;75.05;100897.28;1789606;78;25890;-64
2022/01/10 07:08:12;;;;;;;19.73;11.60;;;;;;;1.24;75.50;100903.11;1789141;79;25786;-63
2022/01/10 07:10:47;;;;;;;40.15;22.10;;;;;;;1.31;75.65;100901.48;1787457;80;28421;-65
2022/01/10 07:13:16;;;;;;;23.35;13.40;;;;;;;1.28;75.06;100905.63;1789538;80;25703;-63
2022/01/10 07:15:44;;;;;;;23.62;12.58;;;;;;;1.31;75.45;100906.78;1788576;80;25760;-64
2022/01/10 07:18:19;;;;;;;20.52;11.93;;;;;;;1.32;75.24;100915.13;1786688;79;25811;-63
2022/01/10 07:20:50;;;;;;;20.43;12.85;;;;;;;1.31;75.50;100914.73;1787353;80;25808;-63
2022/01/10 07:23:18;;;;;;;21.87;13.03;;;;;;;1.37;75.79;100918.44;1787902;79;27676;-64
2022/01/10 07:25:45;;;;;;;19.50;12.25;;;;;;;1.42;75.61;100915.09;1792521;79;26324;-64
2022/01/10 07:28:14;;;;;;;21.80;14.13;;;;;;;1.43;75.35;100918.14;1794799;78;25702;-65
2022/01/10 07:30:42;;;;;;;27.45;15.00;;;;;;;1.45;75.36;100919.38;1792507;79;26450;-64
2022/01/10 07:33:09;;;;;;;22.02;13.78;;;;;;;1.49;75.53;100929.77;1794424;79;25822;-65
2022/01/10 07:35:36;;;;;;;24.75;14.50;;;;;;;1.55;75.64;100921.98;1788186;79;27828;-66
2022/01/10 07:38:02;;;;;;;23.38;14.40;;;;;;;1.60;75.64;100923.97;1790554;79;25734;-65
2022/01/10 07:40:29;;;;;;;21.95;13.70;;;;;;;1.65;75.57;100916.62;1789794;80;25493;-65
2022/01/10 07:42:56;;;;;;;21.15;13.35;;;;;;;1.67;75.06;100920.07;1793144;78;25783;-64
2022/01/10 07:45:32;;;;;;;20.92;12.58;;;;;;;1.65;74.68;100922.41;1782675;80;25791;-65
2022/01/10 07:48:00;;;;;;;21.17;12.50;;;;;;;1.60;73.96;100931.92;1779298;80;28169;-65
2022/01/10 07:50:27;;;;;;;21.17;13.08;;;;;;;1.53;73.83;100939.30;1778047;80;25782;-64
2022/01/10 07:52:54;;;;;;;23.38;13.38;;;;;;;1.51;74.04;100938.98;1775301;79;25771;-65
2022/01/10 07:55:27;;;;;;;21.93;12.85;;;;;;;1.49;73.94;100950.97;1779471;80;26421;-64
2022/01/10 07:57:54;;;;;;;19.82;13.10;;;;;;;1.50;74.35;100953.17;1781130;80;26476;-65
2022/01/10 08:00:22;;;;;;;20.72;13.45;;;;;;;1.52;74.24;100956.14;1776110;79;27429;-65
2022/01/10 08:02:49;;;;;;;20.77;12.93;;;;;;;1.53;74.29;100953.01;1779780;80;25811;-64
2022/01/10 08:05:16;;;;;;;18.65;11.93;;;;;;;1.54;74.20;100954.73;1779929;79;25769;-64
2022/01/10 08:07:46;;;;;;;19.85;11.80;;;;;;;1.55;74.28;100956.00;1774328;80;25811;-64
2022/01/10 08:10:13;;;;;;;18.92;11.93;;;;;;;1.53;73.88;100964.94;1777106;79;25775;-65
2022/01/10 08:12:39;;;;;;;19.50;12.03;;;;;;;1.52;73.57;100967.23;1780444;80;27496;-64
2022/01/10 08:15:09;;;;;;;21.87;12.30;;;;;;;1.50;73.29;100966.44;1778152;80;25438;-65
2022/01/10 08:17:39;;;;;;;20.17;12.37;;;;;;;1.48;72.44;100959.01;1781241;80;25763;-65
2022/01/10 08:20:07;;;;;;;20.45;12.75;;;;;;;1.43;72.54;100961.03;1785161;80;25750;-64
2022/01/10 08:22:35;;;;;;;19.60;13.45;;;;;;;1.39;72.20;100966.95;1782366;80;25723;-65
2022/01/10 08:25:03;;;;;;;22.20;12.85;;;;;;;1.34;72.19;100971.59;1781598;80;27444;-65
2022/01/10 08:27:35;;;;;;;23.75;13.28;;;;;;;1.30;72.40;100980.16;1783225;80;25780;-65
2022/01/10 08:30:05;;;;;;;21.97;13.53;;;;;;;1.28;72.66;100977.19;1783441;80;25794;-65
2022/01/10 08:32:32;;;;;;;20.30;12.60;;;;;;;1.27;72.83;100986.91;1793483;80;25814;-65
2022/01/10 08:34:59;;;;;;;21.20;13.30;;;;;;;1.31;72.90;100984.98;1784603;79;25801;-65
2022/01/10 08:37:28;;;;;;;22.70;13.53;;;;;;;1.34;72.63;100986.17;1780303;79;27824;-65
2022/01/10 08:39:59;;;;;;;23.15;14.35;;;;;;;1.37;72.72;100982.06;1783350;80;25814;-65
2022/01/10 08:42:29;;;;;;;22.37;13.20;;;;;;;1.47;72.83;100990.43;1756201;80;25708;-65
2022/01/10 08:44:56;;;;;;;21.60;13.45;;;;;;;1.52;72.55;100995.06;1784771;80;25806;-65
2022/01/10 08:47:26;;;;;;;22.30;13.95;;;;;;;1.58;72.50;101000.07;1784667;80;25596;-65
2022/01/10 08:49:54;;;;;;;24.20;14.90;;;;;;;1.61;72.22;101005.69;1784665;80;28608;-66
2022/01/10 08:52:21;;;;;;;25.35;14.63;;;;;;;1.59;71.84;101002.24;1785046;80;25743;-65
2022/01/10 08:54:49;;;;;;;25.37;15.18;;;;;;;1.48;71.36;101010.71;1792475;79;25796;-64
2022/01/10 08:57:17;;;;;;;27.13;15.25;;;;;;;1.43;71.67;101010.08;1793675;80;25802;-65
2022/01/10 08:59:45;;;;;;;26.23;15.72;;;;;;;1.36;71.61;101022.75;1790001;80;25706;-64
2022/01/10 09:02:12;;;;;;;26.40;15.55;;;;;;;1.35;71.88;101018.38;1790284;80;28254;-65
2022/01/10 09:04:40;;;;;;;22.73;15.53;;;;;;;1.31;71.59;101008.38;1789335;79;25698;-65
2022/01/10 09:07:09;;;;;;;22.55;14.68;;;;;;;1.34;71.88;101015.33;1777254;80;25784;-65
2022/01/10 09:09:37;;;;;;;26.70;14.85;;;;;;;1.37;71.66;101017.84;1783925;79;25840;-65
2022/01/10 09:12:06;;;;;;;24.20;14.15;;;;;;;1.37;71.44;101014.72;1784574;80;26405;-65
2022/01/10 09:14:33;;;;;;;26.68;15.13;;;;;;;1.35;71.83;101012.59;1784522;80;28343;-65
2022/01/10 09:17:00;;;;;;;29.52;15.23;;;;;;;1.42;71.56;101010.53;1792012;80;25511;-64
2022/01/10 09:19:27;;;;;;;27.02;16.07;;;;;;;1.40;71.29;101015.03;1793838;80;25801;-65
2022/01/10 09:21:54;;;;;;;25.90;14.80;;;;;;;1.38;71.55;101020.90;1793243;80;25981;-65
2022/01/10 09:24:22;;;;;;;25.40;14.87;;;;;;;1.45;71.51;101021.45;1753738;81;25716;-65
2022/01/10 09:26:49;;;;;;;24.05;14.73;;;;;;;1.46;71.78;101016.09;1770601;80;28148;-64
2022/01/10 09:29:17;;;;;;;28.50;15.10;;;;;;;1.52;71.71;101021.10;1783127;80;25776;-66
2022/01/10 09:31:45;;;;;;;25.90;15.32;;;;;;;1.56;71.69;101025.80;1783532;80;25751;-65
2022/01/10 09:34:12;;;;;;;27.75;15.32;;;;;;;1.55;71.68;101030.25;1782639;80;25792;-64
2022/01/10 09:36:41;;;;;;;30.68;16.87;;;;;;;1.63;71.30;101018.42;1782830;80;25797;-65
2022/01/10 09:39:13;;;;;;;31.50;16.90;;;;;;;1.65;71.40;101020.06;1782742;80;27508;-64
2022/01/10 09:41:41;;;;;;;27.20;16.10;;;;;;;1.72;71.58;101017.98;1782231;80;25498;-65
2022/01/10 09:44:08;;;;;;;25.43;15.58;;;;;;;1.77;71.41;101019.09;1783296;80;25752;-65
2022/01/10 09:46:35;;;;;;;27.20;15.70;;;;;;;1.81;71.10;101027.27;1782750;80;26134;-64
2022/01/10 09:49:04;;;;;;;26.55;16.65;;;;;;;1.81;70.86;101025.50;1782790;80;25755;-65
2022/01/10 09:51:36;;;;;;;28.07;15.20;;;;;;;1.82;71.16;101032.98;1758063;80;28201;-64
2022/01/10 09:54:03;;;;;;;25.25;14.98;;;;;;;1.77;70.53;101032.35;1773740;80;25807;-65
2022/01/10 09:56:34;;;;;;;27.45;15.93;;;;;;;1.70;70.47;101026.47;1780877;79;25763;-64
2022/01/10 09:59:05;;;;;;;25.48;14.70;;;;;;;1.70;70.82;101025.14;1791352;78;25775;-64
2022/01/10 10:01:34;;;;;;;28.07;16.00;;;;;;;1.68;70.23;101025.67;1791799;80;25511;-65
2022/01/10 10:04:02;;;;;;;27.58;15.18;;;;;;;1.68;69.94;101028.33;1791728;80;27419;-64
2022/01/10 10:06:34;;;;;;;25.05;14.95;;;;;;;1.59;70.29;101034.94;1787766;80;25882;-64
2022/01/10 10:09:07;;;;;;;28.10;16.05;;;;;;;1.59;70.69;101029.64;1791468;79;25756;-64
2022/01/10 10:11:50;;;;;;;32.30;17.98;;;;;;;1.60;70.67;101021.20;1789005;79;26338;-64
2022/01/10 10:14:23;;;;;;;27.25;16.90;;;;;;;1.64;70.75;101023.64;1783511;80;25775;-65
2022/01/10 10:16:54;;;;;;;29.63;17.17;;;;;;;1.63;70.38;101028.55;1786920;79;27466;-64
2022/01/10 10:19:29;;;;;;;30.70;17.12;;;;;;;1.60;70.32;101034.46;1786839;80;25754;-63
2022/01/10 10:21:59;;;;;;;28.73;17.27;;;;;;;1.56;70.32;101041.26;1784936;79;25737;-64
2022/01/10 10:24:27;;;;;;;27.07;14.85;;;;;;;1.59;70.69;101050.85;1775473;80;25792;-63
2022/01/10 10:26:54;;;;;;;25.15;15.53;;;;;;;1.61;70.53;101042.37;1775952;79;25775;-63
2022/01/10 10:29:24;;;;;;;25.40;14.80;;;;;;;1.64;69.55;101049.31;1747101;80;27519;-64
2022/01/10 10:31:54;;;;;;;26.37;15.32;;;;;;;1.59;69.56;101045.55;1769972;79;25850;-64
2022/01/10 10:34:29;;;;;;;25.62;15.05;;;;;;;1.52;69.71;101043.64;1776633;80;25739;-64
2022/01/10 10:37:05;;;;;;;27.15;16.23;;;;;;;1.51;69.84;101042.40;1774744;79;25748;-64
2022/01/10 10:39:37;;;;;;;26.87;13.00;;;;;;;1.52;70.35;101042.31;1769757;80;25716;-64
2022/01/10 10:42:10;;;;;;;25.88;14.95;;;;;;;1.55;70.14;101035.55;1780308;79;46212;-64
2022/01/10 10:44:43;;;;;;;25.70;14.07;;;;;;;1.50;70.37;101040.67;1780689;80;25500;-64
2022/01/10 10:47:12;;;;;;;26.77;15.90;;;;;;;1.48;70.12;101046.50;1768623;80;25818;-65
2022/01/10 10:49:44;;;;;;;26.48;15.58;;;;;;;1.45;70.48;101054.14;1773240;80;25781;-64
2022/01/10 10:52:11;;;;;;;24.52;15.70;;;;;;;1.45;70.47;101059.44;1772341;80;25819;-64
2022/01/10 10:54:40;;;;;;;26.60;16.25;;;;;;;1.46;70.02;101058.52;1772247;79;27450;-65
2022/01/10 10:57:10;;;;;;;26.00;15.10;;;;;;;1.44;70.11;101063.47;1772234;80;25704;-64
2022/01/10 10:59:43;;;;;;;23.38;14.70;;;;;;;1.40;70.41;101066.73;1774081;79;25742;-64
2022/01/10 11:02:06;;;;;;;23.60;14.60;;;;;;;1.41;70.37;101061.83;1776020;79;25763;-64
2022/01/10 11:04:35;;;;;;;27.02;14.93;;;;;;;1.38;70.00;101063.31;1772298;80;25902;-64
2022/01/10 11:07:04;;;;;;;26.50;15.00;;;;;;;1.34;70.03;101069.67;1772066;79;27827;-64
2022/01/10 11:09:35;;;;;;;21.50;12.73;;;;;;;1.32;70.58;101071.52;1777414;79;25783;-65
2022/01/10 11:12:02;;;;;;;20.00;13.53;;;;;;;1.38;70.07;101074.77;1790270;80;25825;-65
2022/01/10 11:14:29;;;;;;;21.65;13.55;;;;;;;1.36;70.41;101073.12;1793286;79;26284;-64
2022/01/10 11:16:58;;;;;;;23.83;13.95;;;;;;;1.36;69.75;101072.64;1792543;79;25751;-65
2022/01/10 11:19:27;;;;;;;24.90;14.58;;;;;;;1.32;69.67;101083.00;1790647;80;28171;-65
2022/01/10 11:22:08;;;;;;;22.77;13.70;;;;;;;1.22;69.53;101081.69;1793350;78;25803;-65
2022/01/10 11:24:55;;;;;;;22.87;13.48;;;;;;;1.21;69.43;101085.27;1772876;79;25806;-65
2022/01/10 11:27:36;;;;;;;22.10;13.28;;;;;;;1.15;69.42;101095.66;1795555;78;25739;-65
2022/01/10 11:30:31;;;;;;;27.13;13.40;;;;;;;1.13;69.96;101102.81;1794382;79;26340;-66
2022/01/10 11:33:16;;;;;;;24.45;13.80;;;;;;;1.11;69.71;101103.81;1759837;80;27444;-65